createdAt,value
2018-05-06T00:01:11.559Z,19.58
2018-05-06T00:02:45.771Z,19.54
2018-05-06T00:03:45.712Z,19.50
2018-05-06T00:05:41.027Z,19.41
2018-05-06T00:06:40.910Z,19.47
2018-05-06T00:08:36.180Z,19.50
2018-05-06T00:09:36.092Z,19.51
2018-05-06T00:11:31.422Z,19.50
2018-05-06T00:12:31.308Z,19.54
2018-05-06T00:14:26.573Z,19.54
2018-05-06T00:15:26.507Z,19.51
2018-05-06T00:17:21.816Z,19.40
2018-05-06T00:18:21.693Z,19.40
2018-05-06T00:20:17.035Z,19.47
2018-05-06T00:21:16.902Z,19.48
2018-05-06T00:23:12.204Z,19.33
2018-05-06T00:24:12.106Z,19.23
2018-05-06T00:26:07.419Z,19.26
2018-05-06T00:27:07.315Z,19.04
2018-05-06T00:29:02.592Z,19.23
2018-05-06T00:30:02.511Z,19.21
2018-05-06T00:31:58.702Z,19.19
2018-05-06T00:32:58.581Z,19.18
2018-05-06T00:33:58.531Z,19.07
2018-05-06T00:34:58.491Z,19.08
2018-05-06T00:35:58.437Z,19.13
2018-05-06T00:36:58.342Z,19.10
2018-05-06T00:37:58.269Z,19.21
2018-05-06T00:39:19.190Z,19.08
2018-05-06T00:39:58.135Z,18.94
2018-05-06T00:40:58.069Z,18.84
2018-05-06T00:41:58.002Z,18.72
2018-05-06T00:42:57.939Z,18.70
2018-05-06T00:43:57.896Z,18.73
2018-05-06T00:44:57.808Z,18.73
2018-05-06T00:45:57.756Z,18.73
2018-05-06T00:46:57.709Z,18.78
2018-05-06T00:47:57.627Z,18.87
2018-05-06T00:48:57.569Z,18.80
2018-05-06T00:49:57.499Z,18.81
2018-05-06T00:50:57.427Z,18.82
2018-05-06T00:52:18.354Z,18.85
2018-05-06T00:52:57.292Z,18.78
2018-05-06T00:53:57.247Z,18.75
2018-05-06T00:54:57.178Z,18.80
2018-05-06T00:55:57.104Z,18.85
2018-05-06T00:56:57.043Z,18.82
2018-05-06T00:57:56.979Z,18.70
2018-05-06T00:58:56.918Z,18.76
2018-05-06T00:59:56.850Z,18.70
2018-05-06T01:01:17.773Z,18.72
2018-05-06T01:01:56.730Z,18.72
2018-05-06T01:03:17.660Z,18.80
2018-05-06T01:03:56.603Z,18.82
2018-05-06T01:04:56.536Z,18.84
2018-05-06T01:05:56.456Z,18.82
2018-05-06T01:06:56.406Z,18.81
2018-05-06T01:07:56.341Z,18.85
2018-05-06T01:08:56.260Z,18.87
2018-05-06T01:09:56.200Z,18.85
2018-05-06T01:10:56.142Z,18.85
2018-05-06T01:11:56.075Z,18.85
2018-05-06T01:12:56.011Z,18.80
2018-05-06T01:14:16.939Z,18.82
2018-05-06T01:14:55.888Z,18.80
2018-05-06T01:17:29.893Z,18.73
2018-05-06T01:18:29.794Z,18.73
2018-05-06T01:20:25.045Z,18.66
2018-05-06T01:21:24.968Z,18.72
2018-05-06T01:22:24.900Z,18.72
2018-05-06T01:23:24.821Z,18.73
2018-05-06T01:24:24.765Z,18.67
2018-05-06T01:25:24.728Z,18.69
2018-05-06T01:26:24.644Z,18.67
2018-05-06T01:27:24.565Z,18.70
2018-05-06T01:28:24.511Z,18.72
2018-05-06T01:29:24.442Z,18.75
2018-05-06T01:30:24.382Z,18.81
2018-05-06T01:31:45.308Z,18.87
2018-05-06T01:32:24.254Z,18.73
2018-05-06T01:33:24.182Z,18.70
2018-05-06T01:34:24.140Z,18.65
2018-05-06T01:35:24.057Z,18.72
2018-05-06T01:36:23.994Z,18.55
2018-05-06T01:37:23.952Z,18.66
2018-05-06T01:38:23.855Z,18.58
2018-05-06T01:39:23.803Z,18.51
2018-05-06T01:40:23.731Z,18.50
2018-05-06T01:41:23.679Z,18.52
2018-05-06T01:42:23.598Z,18.44
2018-05-06T01:43:23.539Z,18.45
2018-05-06T01:44:23.473Z,18.37
2018-05-06T01:45:23.412Z,18.39
2018-05-06T01:46:23.353Z,18.57
2018-05-06T01:47:23.293Z,18.50
2018-05-06T01:48:23.211Z,18.48
2018-05-06T01:49:23.162Z,18.55
2018-05-06T01:50:23.102Z,18.60
2018-05-06T01:51:23.038Z,18.51
2018-05-06T01:52:43.953Z,18.52
2018-05-06T01:53:22.895Z,18.48
2018-05-06T01:54:22.830Z,18.47
2018-05-06T01:55:22.762Z,18.50
2018-05-06T01:56:43.684Z,18.48
2018-05-06T01:57:22.649Z,18.47
2018-05-06T01:58:22.561Z,18.50
2018-05-06T01:59:22.512Z,18.51
2018-05-06T02:00:22.431Z,18.54
2018-05-06T02:01:22.387Z,18.47
2018-05-06T02:02:22.326Z,18.51
2018-05-06T02:03:22.249Z,18.58
2018-05-06T02:04:22.177Z,18.55
2018-05-06T02:05:22.124Z,18.55
2018-05-06T02:06:22.065Z,18.51
2018-05-06T02:07:21.997Z,18.51
2018-05-06T02:08:21.926Z,18.51
2018-05-06T02:09:21.863Z,18.51
2018-05-06T02:10:21.791Z,18.55
2018-05-06T02:11:21.737Z,18.51
2018-05-06T02:12:21.701Z,18.51
2018-05-06T02:13:21.604Z,18.51
2018-05-06T02:14:21.529Z,18.42
2018-05-06T02:15:21.465Z,18.42
2018-05-06T02:16:21.410Z,18.36
2018-05-06T02:17:21.339Z,18.48
2018-05-06T02:18:21.282Z,18.30
2018-05-06T02:19:21.215Z,18.18
2018-05-06T02:20:21.149Z,18.12
2018-05-06T02:21:21.083Z,18.11
2018-05-06T02:22:21.023Z,18.20
2018-05-06T02:23:20.961Z,18.10
2018-05-06T02:24:20.883Z,18.10
2018-05-06T02:25:20.841Z,18.02
2018-05-06T02:26:20.765Z,18.11
2018-05-06T02:27:20.705Z,18.17
2018-05-06T02:28:20.642Z,18.10
2018-05-06T02:29:20.557Z,18.25
2018-05-06T02:30:20.512Z,18.17
2018-05-06T02:31:41.423Z,18.21
2018-05-06T02:32:20.380Z,18.26
2018-05-06T02:33:41.301Z,18.02
2018-05-06T02:34:20.248Z,17.99
2018-05-06T02:35:41.161Z,18.03
2018-05-06T02:36:20.119Z,18.00
2018-05-06T02:37:20.048Z,17.89
2018-05-06T02:38:19.971Z,17.93
2018-05-06T02:39:19.906Z,17.92
2018-05-06T02:40:19.862Z,17.96
2018-05-06T02:41:19.783Z,18.00
2018-05-06T02:42:19.720Z,17.95
2018-05-06T02:43:19.663Z,18.02
2018-05-06T02:44:40.578Z,18.08
2018-05-06T02:45:19.538Z,18.05
2018-05-06T02:46:19.471Z,18.10
2018-05-06T02:47:19.409Z,18.10
2018-05-06T02:48:19.329Z,18.05
2018-05-06T02:49:19.261Z,17.99
2018-05-06T02:50:19.202Z,18.02
2018-05-06T02:51:19.148Z,17.99
2018-05-06T02:52:19.073Z,17.99
2018-05-06T02:53:19.026Z,18.10
2018-05-06T02:54:39.937Z,18.10
2018-05-06T02:55:18.887Z,18.03
2018-05-06T02:56:18.823Z,18.07
2018-05-06T02:57:18.757Z,18.08
2018-05-06T02:58:18.677Z,17.97
2018-05-06T02:59:18.630Z,17.95
2018-05-06T03:00:18.561Z,17.89
2018-05-06T03:01:18.498Z,17.89
2018-05-06T03:02:18.418Z,17.81
2018-05-06T03:03:18.357Z,17.78
2018-05-06T03:04:18.297Z,17.77
2018-05-06T03:05:18.231Z,17.79
2018-05-06T03:06:18.163Z,17.79
2018-05-06T03:07:18.088Z,17.84
2018-05-06T03:08:18.039Z,17.75
2018-05-06T03:09:17.963Z,17.82
2018-05-06T03:10:17.896Z,17.62
2018-05-06T03:11:17.837Z,17.63
2018-05-06T03:12:17.867Z,17.70
2018-05-06T03:13:17.718Z,17.72
2018-05-06T03:14:17.641Z,17.66
2018-05-06T03:15:17.608Z,17.63
2018-05-06T03:16:38.575Z,17.70
2018-05-06T03:17:17.464Z,17.70
2018-05-06T03:18:17.386Z,17.63
2018-05-06T03:19:17.328Z,17.62
2018-05-06T03:20:17.261Z,17.59
2018-05-06T03:21:17.180Z,17.68
2018-05-06T03:22:17.127Z,17.59
2018-05-06T03:24:51.992Z,17.68
2018-05-06T03:25:51.899Z,17.64
2018-05-06T03:27:47.203Z,17.71
2018-05-06T03:28:47.100Z,17.79
2018-05-06T03:30:42.407Z,17.75
2018-05-06T03:31:42.309Z,17.75
2018-05-06T03:33:37.633Z,17.81
2018-05-06T03:34:37.508Z,17.78
2018-05-06T03:36:32.771Z,17.79
2018-05-06T03:37:32.711Z,17.84
2018-05-06T03:39:28.023Z,17.87
2018-05-06T03:40:27.905Z,17.93
2018-05-06T03:42:23.319Z,17.92
2018-05-06T03:43:23.099Z,17.92
2018-05-06T03:45:18.446Z,17.90
2018-05-06T03:46:18.334Z,17.90
2018-05-06T03:48:13.613Z,17.81
2018-05-06T03:49:13.529Z,17.77
2018-05-06T03:51:29.827Z,17.77
2018-05-06T03:53:04.060Z,17.68
2018-05-06T03:54:03.978Z,17.70
2018-05-06T03:56:00.080Z,17.58
2018-05-06T03:56:59.966Z,17.68
2018-05-06T03:58:56.069Z,17.19
2018-05-06T03:59:55.991Z,17.19
2018-05-06T04:01:51.311Z,17.19
2018-05-06T04:02:51.205Z,17.25
2018-05-06T04:04:46.495Z,17.22
2018-05-06T04:07:01.769Z,17.36
2018-05-06T04:08:01.659Z,17.40
2018-05-06T04:11:33.130Z,17.46
2018-05-06T04:12:33.040Z,17.46
2018-05-06T04:14:28.367Z,17.46
2018-05-06T04:15:28.258Z,17.41
2018-05-06T04:17:23.550Z,17.31
2018-05-06T04:18:23.462Z,17.37
2018-05-06T04:20:19.657Z,17.38
2018-05-06T04:21:19.635Z,17.49
2018-05-06T04:23:14.844Z,17.40
2018-05-06T04:24:14.745Z,17.46
2018-05-06T04:26:12.353Z,17.23
2018-05-06T04:27:12.267Z,17.31
2018-05-06T04:29:07.585Z,17.25
2018-05-06T04:30:07.472Z,17.28
2018-05-06T04:32:02.803Z,17.28
2018-05-06T04:33:02.687Z,17.26
2018-05-06T04:34:02.607Z,17.16
2018-05-06T04:35:02.546Z,17.22
2018-05-06T04:36:02.495Z,17.06
2018-05-06T04:37:02.410Z,17.12
2018-05-06T04:38:02.357Z,16.98
2018-05-06T04:39:23.289Z,16.97
2018-05-06T04:40:02.235Z,16.73
2018-05-06T04:41:02.164Z,16.66
2018-05-06T04:42:02.105Z,16.58
2018-05-06T04:43:02.020Z,16.70
2018-05-06T04:44:01.966Z,16.82
2018-05-06T04:45:01.907Z,16.88
2018-05-06T04:46:01.832Z,16.97
2018-05-06T04:47:22.751Z,16.93
2018-05-06T04:48:01.696Z,16.97
2018-05-06T04:49:01.638Z,16.97
2018-05-06T04:50:22.551Z,17.01
2018-05-06T04:51:01.521Z,17.06
2018-05-06T04:52:01.439Z,17.01
2018-05-06T04:53:01.359Z,17.11
2018-05-06T04:54:01.295Z,17.11
2018-05-06T04:55:01.227Z,17.11
2018-05-06T04:56:01.165Z,17.08
2018-05-06T04:57:01.104Z,16.97
2018-05-06T04:58:01.051Z,16.98
2018-05-06T04:59:00.975Z,16.85
2018-05-06T05:00:00.911Z,16.96
2018-05-06T05:01:00.875Z,16.94
2018-05-06T05:02:00.783Z,16.98
2018-05-06T05:03:21.699Z,17.06
2018-05-06T05:04:00.650Z,17.03
2018-05-06T05:05:00.589Z,17.16
2018-05-06T05:06:00.519Z,17.18
2018-05-06T05:07:00.468Z,17.15
2018-05-06T05:08:00.390Z,17.28
2018-05-06T05:09:00.318Z,17.25
2018-05-06T05:10:00.261Z,17.38
2018-05-06T05:11:00.191Z,17.37
2018-05-06T05:12:00.123Z,17.38
2018-05-06T05:13:00.063Z,17.19
2018-05-06T05:14:00.005Z,17.08
2018-05-06T05:14:59.920Z,17.07
2018-05-06T05:15:59.851Z,17.03
2018-05-06T05:16:59.791Z,17.08
2018-05-06T05:17:59.723Z,17.07
2018-05-06T05:18:59.675Z,17.14
2018-05-06T05:19:59.605Z,17.18
2018-05-06T05:20:59.533Z,17.19
2018-05-06T05:21:59.465Z,17.19
2018-05-06T05:22:59.399Z,17.19
2018-05-06T05:23:59.335Z,17.11
2018-05-06T05:24:59.306Z,17.18
2018-05-06T05:25:59.204Z,17.23
2018-05-06T05:26:59.139Z,17.18
2018-05-06T05:27:59.075Z,17.28
2018-05-06T05:29:19.982Z,17.21
2018-05-06T05:29:58.950Z,17.21
2018-05-06T05:30:58.869Z,17.30
2018-05-06T05:31:58.797Z,17.31
2018-05-06T05:32:58.741Z,17.26
2018-05-06T05:33:58.686Z,17.37
2018-05-06T05:34:58.615Z,17.23
2018-05-06T05:35:58.551Z,17.36
2018-05-06T05:36:58.556Z,17.40
2018-05-06T05:37:58.412Z,17.40
2018-05-06T05:38:58.348Z,17.44
2018-05-06T05:39:58.283Z,17.46
2018-05-06T05:40:58.212Z,17.49
2018-05-06T05:41:58.157Z,17.49
2018-05-06T05:42:58.076Z,17.62
2018-05-06T05:43:58.037Z,17.62
2018-05-06T05:44:57.954Z,17.64
2018-05-06T05:45:57.892Z,17.66
2018-05-06T05:46:57.853Z,17.68
2018-05-06T05:49:31.805Z,17.77
2018-05-06T05:50:31.695Z,17.82
2018-05-06T05:52:47.979Z,17.86
2018-05-06T05:54:43.238Z,17.86
2018-05-06T05:56:17.519Z,17.81
2018-05-06T05:57:17.423Z,17.89
2018-05-06T05:59:12.727Z,17.93
2018-05-06T06:00:12.614Z,17.95
2018-05-06T06:02:07.922Z,17.93
2018-05-06T06:03:07.809Z,17.93
2018-05-06T06:05:03.131Z,17.75
2018-05-06T06:06:03.032Z,17.75
2018-05-06T06:07:58.377Z,17.63
2018-05-06T06:08:58.246Z,17.40
2018-05-06T06:10:53.583Z,17.44
2018-05-06T06:11:53.435Z,17.59
2018-05-06T06:13:48.749Z,17.71
2018-05-06T06:14:48.622Z,17.75
2018-05-06T06:16:43.917Z,17.77
2018-05-06T06:17:43.820Z,17.74
2018-05-06T06:19:40.002Z,17.79
2018-05-06T06:20:39.856Z,17.89
2018-05-06T06:22:35.144Z,17.87
2018-05-06T06:23:35.052Z,17.92
2018-05-06T06:25:31.219Z,18.02
2018-05-06T06:26:31.115Z,18.02
2018-05-06T06:28:26.436Z,18.08
2018-05-06T06:29:26.325Z,18.02
2018-05-06T06:30:26.239Z,17.87
2018-05-06T06:31:26.182Z,17.93
2018-05-06T06:32:26.124Z,17.95
2018-05-06T06:33:26.060Z,18.03
2018-05-06T06:34:25.998Z,17.95
2018-05-06T06:35:25.923Z,18.00
2018-05-06T06:36:25.873Z,18.15
2018-05-06T06:37:25.811Z,18.26
2018-05-06T06:38:25.788Z,18.36
2018-05-06T06:39:25.668Z,18.52
2018-05-06T06:40:25.604Z,18.51
2018-05-06T06:41:25.557Z,18.60
2018-05-06T06:42:25.490Z,18.62
2018-05-06T06:43:25.422Z,18.57
2018-05-06T06:44:25.356Z,18.63
2018-05-06T06:46:59.345Z,18.50
2018-05-06T06:47:59.248Z,18.67
2018-05-06T06:49:54.521Z,18.88
2018-05-06T06:50:54.449Z,19.02
2018-05-06T06:52:49.772Z,18.95
2018-05-06T06:53:49.649Z,19.00
2018-05-06T06:55:45.056Z,18.98
2018-05-06T06:56:44.871Z,18.85
2018-05-06T06:59:01.136Z,18.92
2018-05-06T07:00:35.463Z,19.06
2018-05-06T07:01:35.355Z,19.00
2018-05-06T07:03:30.637Z,19.06
2018-05-06T07:04:30.544Z,18.95
2018-05-06T07:06:26.697Z,19.10
2018-05-06T07:07:26.590Z,19.25
2018-05-06T07:09:21.922Z,19.19
2018-05-06T07:10:21.800Z,19.29
2018-05-06T07:12:17.085Z,19.39
2018-05-06T07:13:17.000Z,19.33
2018-05-06T07:15:12.330Z,19.37
2018-05-06T07:16:12.232Z,19.32
2018-05-06T07:18:28.492Z,19.40
2018-05-06T07:20:02.744Z,19.50
2018-05-06T07:21:02.681Z,19.48
2018-05-06T07:22:57.967Z,19.40
2018-05-06T07:23:57.887Z,19.56
2018-05-06T07:25:53.193Z,19.59
2018-05-06T07:26:53.082Z,19.69
2018-05-06T07:28:48.409Z,19.63
2018-05-06T07:29:48.342Z,19.62
2018-05-06T07:31:43.557Z,19.54
2018-05-06T07:32:43.475Z,19.55
2018-05-06T07:34:38.783Z,19.33
2018-05-06T07:35:38.695Z,19.33
2018-05-06T07:37:55.004Z,19.46
2018-05-06T07:39:30.090Z,19.50
2018-05-06T07:40:30.011Z,19.62
2018-05-06T07:42:25.315Z,19.76
2018-05-06T07:43:25.205Z,19.76
2018-05-06T07:45:20.557Z,19.59
2018-05-06T07:46:20.440Z,19.58
2018-05-06T07:48:36.710Z,19.68
2018-05-06T07:50:10.962Z,19.58
2018-05-06T07:51:10.884Z,19.40
2018-05-06T07:53:06.191Z,19.51
2018-05-06T07:54:06.101Z,19.61
2018-05-06T07:56:01.380Z,19.77
2018-05-06T07:57:01.305Z,19.78
2018-05-06T07:58:56.622Z,19.94
2018-05-06T07:59:56.493Z,20.02
2018-05-06T08:01:51.841Z,20.03
2018-05-06T08:02:51.730Z,20.13
2018-05-06T08:04:47.011Z,19.96
2018-05-06T08:07:20.965Z,20.11
2018-05-06T08:08:20.857Z,20.16
2018-05-06T08:10:16.121Z,20.23
2018-05-06T08:11:16.054Z,20.36
2018-05-06T08:13:12.260Z,20.23
2018-05-06T08:14:12.159Z,20.28
2018-05-06T08:16:08.316Z,20.13
2018-05-06T08:17:08.207Z,20.06
2018-05-06T08:19:03.512Z,20.06
2018-05-06T08:20:03.420Z,20.14
2018-05-06T08:21:58.725Z,20.24
2018-05-06T08:22:58.631Z,20.38
2018-05-06T08:24:54.697Z,20.39
2018-05-06T08:27:10.857Z,20.52
2018-05-06T08:28:10.741Z,20.58
2018-05-06T08:30:06.032Z,20.52
2018-05-06T08:32:21.329Z,20.58
2018-05-06T08:33:21.221Z,20.67
2018-05-06T08:35:16.546Z,20.85
2018-05-06T08:36:16.440Z,20.87
2018-05-06T08:38:11.720Z,20.76
2018-05-06T08:39:11.646Z,20.52
2018-05-06T08:41:09.360Z,20.70
2018-05-06T08:42:09.244Z,20.67
2018-05-06T08:44:04.510Z,20.79
2018-05-06T08:46:20.687Z,20.91
2018-05-06T08:47:20.565Z,20.95
2018-05-06T08:49:16.707Z,20.97
2018-05-06T08:50:16.600Z,21.07
2018-05-06T08:52:11.938Z,21.07
2018-05-06T08:53:11.820Z,20.99
2018-05-06T08:55:07.098Z,21.07
2018-05-06T08:56:07.018Z,21.12
2018-05-06T08:58:02.415Z,21.21
2018-05-06T08:59:02.260Z,21.22
2018-05-06T09:00:57.564Z,21.21
2018-05-06T09:01:57.470Z,21.22
2018-05-06T09:03:52.753Z,21.35
2018-05-06T09:04:52.661Z,21.37
2018-05-06T09:06:47.919Z,21.34
2018-05-06T09:07:47.842Z,21.38
2018-05-06T09:09:44.047Z,21.34
2018-05-06T09:10:43.938Z,21.46
2018-05-06T09:12:40.036Z,21.42
2018-05-06T09:14:56.201Z,21.43
2018-05-06T09:15:56.090Z,21.42
2018-05-06T09:17:51.462Z,21.35
2018-05-06T09:18:51.295Z,21.37
2018-05-06T09:21:07.532Z,21.47
2018-05-06T09:22:41.842Z,21.53
2018-05-06T09:23:41.736Z,21.58
2018-05-06T09:25:37.144Z,21.71
2018-05-06T09:26:36.937Z,21.67
2018-05-06T09:28:32.220Z,21.71
2018-05-06T09:29:32.146Z,21.83
2018-05-06T09:31:27.454Z,21.74
2018-05-06T09:33:42.739Z,21.72
2018-05-06T09:34:42.620Z,21.71
2018-05-06T09:36:38.732Z,21.54
2018-05-06T09:37:38.693Z,21.67
2018-05-06T09:39:33.945Z,21.82
2018-05-06T09:41:49.196Z,21.96
2018-05-06T09:42:49.057Z,21.91
2018-05-06T09:43:49.016Z,21.84
2018-05-06T09:44:48.950Z,21.91
2018-05-06T09:45:48.889Z,21.91
2018-05-06T09:46:48.829Z,21.98
2018-05-06T09:48:09.756Z,21.90
2018-05-06T09:48:48.691Z,21.92
2018-05-06T09:49:48.648Z,22.00
2018-05-06T09:50:48.584Z,22.07
2018-05-06T09:51:48.510Z,22.09
2018-05-06T09:52:48.457Z,22.20
2018-05-06T09:54:09.385Z,22.14
2018-05-06T09:54:48.337Z,22.28
2018-05-06T09:57:22.448Z,22.35
2018-05-06T09:58:22.241Z,22.35
2018-05-06T10:00:17.519Z,22.27
2018-05-06T10:01:17.443Z,22.15
2018-05-06T10:03:12.885Z,22.30
2018-05-06T10:04:12.648Z,22.31
2018-05-06T10:06:07.916Z,22.21
2018-05-06T10:08:23.199Z,22.14
2018-05-06T10:10:38.455Z,21.98
2018-05-06T10:11:38.362Z,22.02
2018-05-06T10:13:33.662Z,22.07
2018-05-06T10:14:33.567Z,22.14
2018-05-06T10:16:49.860Z,22.33
2018-05-06T10:18:24.102Z,22.18
2018-05-06T10:20:39.376Z,22.35
2018-05-06T10:21:39.295Z,22.35
2018-05-06T10:23:35.487Z,22.49
2018-05-06T10:24:35.348Z,22.62
2018-05-06T10:25:35.300Z,22.67
2018-05-06T10:26:35.225Z,22.60
2018-05-06T10:27:35.178Z,22.67
2018-05-06T10:28:35.119Z,22.58
2018-05-06T10:29:35.048Z,22.68
2018-05-06T10:30:34.998Z,22.67
2018-05-06T10:31:34.931Z,22.79
2018-05-06T10:32:34.874Z,22.73
2018-05-06T10:33:34.811Z,22.77
2018-05-06T10:34:34.746Z,22.85
2018-05-06T10:35:34.691Z,22.82
2018-05-06T10:36:34.632Z,22.83
2018-05-06T10:37:34.611Z,22.80
2018-05-06T10:38:34.509Z,22.82
2018-05-06T10:39:34.443Z,22.76
2018-05-06T10:40:34.394Z,22.79
2018-05-06T10:41:34.320Z,22.83
2018-05-06T10:42:34.266Z,22.83
2018-05-06T10:43:34.206Z,22.94
2018-05-06T10:44:34.199Z,22.98
2018-05-06T10:45:34.093Z,22.92
2018-05-06T10:46:34.027Z,22.83
2018-05-06T10:47:33.970Z,22.73
2018-05-06T10:48:33.911Z,22.68
2018-05-06T10:49:33.853Z,22.65
2018-05-06T10:50:33.791Z,22.68
2018-05-06T10:51:33.735Z,22.80
2018-05-06T10:52:33.720Z,22.75
2018-05-06T10:53:33.616Z,22.80
2018-05-06T10:54:33.549Z,22.72
2018-05-06T10:55:54.471Z,22.55
2018-05-06T10:56:54.410Z,22.64
2018-05-06T10:57:33.357Z,22.67
2018-05-06T10:58:33.298Z,22.70
2018-05-06T10:59:54.227Z,22.60
2018-05-06T11:00:33.171Z,22.62
2018-05-06T11:01:33.112Z,22.67
2018-05-06T11:02:33.067Z,22.70
2018-05-06T11:03:33.005Z,22.67
2018-05-06T11:04:32.944Z,22.68
2018-05-06T11:05:32.894Z,22.77
2018-05-06T11:06:32.810Z,22.83
2018-05-06T11:07:32.763Z,22.80
2018-05-06T11:08:32.696Z,22.73
2018-05-06T11:09:32.628Z,22.88
2018-05-06T11:10:32.572Z,22.83
2018-05-06T11:11:32.517Z,22.76
2018-05-06T11:12:32.451Z,22.76
2018-05-06T11:13:32.384Z,22.70
2018-05-06T11:14:32.325Z,22.79
2018-05-06T11:15:32.275Z,22.70
2018-05-06T11:16:32.206Z,22.64
2018-05-06T11:17:32.149Z,22.68
2018-05-06T11:18:32.085Z,22.72
2018-05-06T11:19:32.021Z,22.67
2018-05-06T11:20:31.967Z,22.67
2018-05-06T11:21:52.894Z,22.85
2018-05-06T11:22:31.843Z,22.82
2018-05-06T11:23:31.778Z,22.85
2018-05-06T11:24:31.712Z,22.85
2018-05-06T11:25:31.656Z,22.95
2018-05-06T11:26:31.608Z,22.95
2018-05-06T11:27:31.534Z,23.09
2018-05-06T11:28:31.471Z,23.12
2018-05-06T11:29:31.409Z,23.16
2018-05-06T11:30:31.353Z,23.19
2018-05-06T11:31:31.297Z,23.07
2018-05-06T11:32:31.237Z,23.17
2018-05-06T11:33:31.181Z,23.17
2018-05-06T11:34:31.120Z,23.12
2018-05-06T11:35:31.052Z,23.15
2018-05-06T11:36:30.998Z,22.98
2018-05-06T11:37:51.934Z,23.01
2018-05-06T11:38:30.865Z,23.04
2018-05-06T11:39:30.818Z,22.97
2018-05-06T11:40:30.744Z,23.00
2018-05-06T11:41:30.697Z,23.02
2018-05-06T11:42:30.628Z,23.02
2018-05-06T11:43:30.606Z,23.05
2018-05-06T11:44:30.504Z,23.12
2018-05-06T11:45:30.448Z,23.19
2018-05-06T11:46:30.387Z,23.25
2018-05-06T11:47:30.319Z,23.22
2018-05-06T11:48:30.270Z,23.27
2018-05-06T11:49:30.199Z,23.20
2018-05-06T11:50:30.152Z,23.27
2018-05-06T11:51:30.100Z,23.35
2018-05-06T11:52:30.019Z,23.39
2018-05-06T11:53:29.953Z,23.38
2018-05-06T11:54:29.899Z,23.42
2018-05-06T11:55:29.853Z,23.38
2018-05-06T11:56:29.778Z,23.31
2018-05-06T11:57:29.723Z,23.36
2018-05-06T11:58:29.664Z,23.39
2018-05-06T11:59:29.586Z,23.39
2018-05-06T12:00:29.541Z,23.28
2018-05-06T12:01:29.494Z,23.31
2018-05-06T12:02:50.410Z,23.38
2018-05-06T12:03:29.351Z,23.25
2018-05-06T12:04:29.297Z,23.33
2018-05-06T12:05:29.246Z,23.35
2018-05-06T12:06:29.171Z,23.35
2018-05-06T12:07:50.099Z,23.35
2018-05-06T12:08:29.057Z,23.35
2018-05-06T12:09:28.996Z,23.38
2018-05-06T12:10:28.921Z,23.36
2018-05-06T12:11:28.861Z,23.35
2018-05-06T12:12:28.803Z,23.40
2018-05-06T12:13:28.746Z,23.40
2018-05-06T12:14:28.689Z,23.38
2018-05-06T12:15:28.623Z,23.46
2018-05-06T12:16:28.570Z,23.50
2018-05-06T12:17:28.504Z,23.43
2018-05-06T12:18:28.445Z,23.46
2018-05-06T12:19:28.389Z,23.46
2018-05-06T12:20:28.307Z,23.54
2018-05-06T12:21:28.250Z,23.55
2018-05-06T12:22:28.188Z,23.54
2018-05-06T12:23:28.126Z,23.54
2018-05-06T12:24:28.078Z,23.55
2018-05-06T12:25:28.016Z,23.61
2018-05-06T12:26:27.964Z,23.57
2018-05-06T12:27:27.890Z,23.58
2018-05-06T12:28:27.829Z,23.58
2018-05-06T12:29:27.766Z,23.61
2018-05-06T12:30:27.714Z,23.54
2018-05-06T12:31:27.653Z,23.60
2018-05-06T12:32:27.599Z,23.63
2018-05-06T12:33:27.543Z,23.61
2018-05-06T12:34:27.459Z,23.65
2018-05-06T12:35:27.395Z,23.66
2018-05-06T12:36:27.355Z,23.66
2018-05-06T12:37:27.289Z,23.68
2018-05-06T12:38:27.232Z,23.73
2018-05-06T12:39:27.170Z,23.73
2018-05-06T12:40:27.101Z,23.65
2018-05-06T12:41:27.075Z,23.78
2018-05-06T12:42:26.986Z,23.85
2018-05-06T12:43:27.008Z,23.78
2018-05-06T12:44:26.866Z,23.75
2018-05-06T12:45:26.795Z,23.83
2018-05-06T12:46:26.746Z,23.80
2018-05-06T12:47:26.671Z,23.83
2018-05-06T12:48:26.619Z,23.83
2018-05-06T12:49:26.624Z,23.80
2018-05-06T12:50:26.498Z,23.87
2018-05-06T12:51:26.438Z,23.84
2018-05-06T12:52:26.381Z,23.91
2018-05-06T12:53:26.317Z,23.93
2018-05-06T12:54:26.258Z,23.88
2018-05-06T12:55:26.191Z,23.85
2018-05-06T12:56:26.127Z,23.80
2018-05-06T12:57:26.063Z,23.84
2018-05-06T12:58:26.017Z,23.84
2018-05-06T12:59:25.958Z,23.88
2018-05-06T13:00:25.885Z,23.83
2018-05-06T13:01:25.841Z,23.88
2018-05-06T13:02:25.833Z,23.87
2018-05-06T13:03:25.707Z,23.98
2018-05-06T13:04:25.654Z,23.90
2018-05-06T13:05:25.591Z,24.06
2018-05-06T13:06:46.522Z,24.10
2018-05-06T13:07:46.454Z,24.08
2018-05-06T13:08:46.405Z,24.18
2018-05-06T13:09:25.353Z,24.22
2018-05-06T13:10:25.282Z,24.30
2018-05-06T13:11:25.276Z,24.31
2018-05-06T13:12:25.172Z,24.34
2018-05-06T13:13:25.108Z,24.45
2018-05-06T13:14:46.034Z,24.40
2018-05-06T13:15:24.984Z,24.45
2018-05-06T13:16:24.918Z,24.45
2018-05-06T13:17:24.866Z,24.46
2018-05-06T13:18:24.797Z,24.43
2018-05-06T13:19:24.745Z,24.46
2018-05-06T13:20:24.677Z,24.37
2018-05-06T13:21:24.628Z,24.49
2018-05-06T13:22:24.556Z,24.45
2018-05-06T13:23:24.495Z,24.49
2018-05-06T13:24:24.439Z,24.49
2018-05-06T13:25:24.386Z,24.52
2018-05-06T13:26:24.325Z,24.55
2018-05-06T13:27:24.257Z,24.50
2018-05-06T13:28:45.187Z,24.46
2018-05-06T13:29:24.140Z,24.45
2018-05-06T13:30:24.082Z,24.61
2018-05-06T13:31:24.025Z,24.53
2018-05-06T13:32:23.954Z,24.62
2018-05-06T13:33:23.895Z,24.62
2018-05-06T13:34:23.834Z,24.64
2018-05-06T13:35:23.785Z,24.65
2018-05-06T13:36:23.714Z,24.69
2018-05-06T13:37:23.654Z,24.80
2018-05-06T13:38:23.597Z,24.71
2018-05-06T13:39:23.541Z,24.90
2018-05-06T13:40:44.471Z,24.95
2018-05-06T13:41:23.424Z,24.71
2018-05-06T13:42:23.351Z,24.60
2018-05-06T13:43:23.307Z,24.61
2018-05-06T13:44:23.235Z,24.69
2018-05-06T13:45:23.178Z,24.78
2018-05-06T13:46:23.129Z,24.73
2018-05-06T13:47:23.068Z,24.87
2018-05-06T13:48:23.000Z,24.91
2018-05-06T13:49:22.943Z,24.90
2018-05-06T13:50:22.882Z,24.99
2018-05-06T13:51:43.817Z,24.96
2018-05-06T13:52:22.767Z,25.00
2018-05-06T13:53:22.697Z,24.87
2018-05-06T13:54:22.639Z,24.84
2018-05-06T13:55:22.600Z,24.91
2018-05-06T13:56:22.545Z,24.91
2018-05-06T13:57:43.454Z,24.96
2018-05-06T13:58:22.405Z,24.91
2018-05-06T13:59:22.347Z,24.91
2018-05-06T14:00:22.282Z,24.88
2018-05-06T14:01:22.319Z,24.88
2018-05-06T14:02:22.163Z,24.85
2018-05-06T14:03:22.114Z,24.73
2018-05-06T14:04:22.063Z,24.77
2018-05-06T14:05:21.986Z,24.73
2018-05-06T14:06:21.927Z,24.76
2018-05-06T14:07:21.870Z,24.77
2018-05-06T14:08:21.809Z,24.90
2018-05-06T14:09:21.744Z,24.76
2018-05-06T14:10:21.682Z,24.85
2018-05-06T14:11:21.622Z,24.71
2018-05-06T14:12:21.558Z,24.78
2018-05-06T14:13:21.512Z,24.71
2018-05-06T14:14:21.439Z,24.68
2018-05-06T14:15:21.394Z,24.68
2018-05-06T14:16:21.328Z,24.80
2018-05-06T14:17:21.264Z,24.69
2018-05-06T14:18:21.202Z,24.77
2018-05-06T14:19:21.144Z,24.93
2018-05-06T14:20:21.079Z,24.91
2018-05-06T14:21:21.021Z,24.81
2018-05-06T14:22:20.966Z,24.81
2018-05-06T14:23:20.903Z,24.73
2018-05-06T14:24:20.835Z,24.65
2018-05-06T14:25:20.789Z,24.64
2018-05-06T14:26:20.726Z,24.64
2018-05-06T14:27:20.668Z,24.61
2018-05-06T14:28:20.591Z,24.68
2018-05-06T14:29:20.542Z,24.55
2018-05-06T14:30:20.484Z,24.53
2018-05-06T14:31:20.414Z,24.57
2018-05-06T14:32:20.357Z,24.55
2018-05-06T14:33:20.298Z,24.57
2018-05-06T14:34:41.225Z,24.64
2018-05-06T14:35:20.171Z,24.62
2018-05-06T14:36:20.111Z,24.61
2018-05-06T14:37:20.048Z,24.55
2018-05-06T14:38:19.989Z,24.52
2018-05-06T14:39:19.919Z,24.52
2018-05-06T14:40:19.885Z,24.53
2018-05-06T14:41:19.814Z,24.49
2018-05-06T14:42:19.743Z,24.58
2018-05-06T14:43:19.685Z,24.52
2018-05-06T14:44:19.623Z,24.50
2018-05-06T14:45:19.565Z,24.47
2018-05-06T14:46:40.512Z,24.42
2018-05-06T14:47:19.448Z,24.53
2018-05-06T14:48:19.388Z,24.49
2018-05-06T14:49:19.315Z,24.46
2018-05-06T14:50:19.270Z,24.46
2018-05-06T14:51:19.195Z,24.53
2018-05-06T14:52:19.169Z,24.43
2018-05-06T14:53:19.071Z,24.49
2018-05-06T14:54:19.178Z,24.45
2018-05-06T14:55:18.952Z,24.47
2018-05-06T14:56:39.885Z,24.43
2018-05-06T14:57:18.837Z,24.42
2018-05-06T14:58:18.775Z,24.57